sensor_id;sensor_type;location;lat;lon;timestamp;P1;durP1;ratioP1;P2;durP2;ratioP2
64543;SDS011;50936;51.660;5.616;2022-11-14T00:01:05;15.15;;;8.13;;
64543;SDS011;50936;51.660;5.616;2022-11-14T00:03:56;14.93;;;8.80;;
64543;SDS011;50936;51.660;5.616;2022-11-14T00:06:41;14.02;;;8.05;;
64543;SDS011;50936;51.660;5.616;2022-11-14T00:09:27;14.93;;;8.77;;
64543;SDS011;50936;51.660;5.616;2022-11-14T00:12:13;18.48;;;7.25;;
64543;SDS011;50936;51.660;5.616;2022-11-14T00:14:58;12.38;;;7.85;;
64543;SDS011;50936;51.660;5.616;2022-11-14T00:17:45;12.90;;;8.27;;
64543;SDS011;50936;51.660;5.616;2022-11-14T00:20:30;12.50;;;7.75;;
64543;SDS011;50936;51.660;5.616;2022-11-14T00:23:16;12.82;;;7.10;;
64543;SDS011;50936;51.660;5.616;2022-11-14T00:26:04;14.88;;;8.80;;
64543;SDS011;50936;51.660;5.616;2022-11-14T00:28:50;14.48;;;8.65;;
64543;SDS011;50936;51.660;5.616;2022-11-14T00:31:35;14.55;;;8.57;;
64543;SDS011;50936;51.660;5.616;2022-11-14T00:34:20;14.68;;;7.75;;
64543;SDS011;50936;51.660;5.616;2022-11-14T00:37:05;14.30;;;7.93;;
64543;SDS011;50936;51.660;5.616;2022-11-14T00:39:51;14.05;;;8.23;;
64543;SDS011;50936;51.660;5.616;2022-11-14T00:42:36;16.08;;;8.32;;
64543;SDS011;50936;51.660;5.616;2022-11-14T00:48:07;14.10;;;8.55;;
64543;SDS011;50936;51.660;5.616;2022-11-14T00:50:53;16.30;;;8.93;;
64543;SDS011;50936;51.660;5.616;2022-11-14T00:56:23;16.20;;;8.38;;
64543;SDS011;50936;51.660;5.616;2022-11-14T00:59:09;14.07;;;8.02;;
64543;SDS011;50936;51.660;5.616;2022-11-14T01:01:54;14.52;;;8.15;;
64543;SDS011;50936;51.660;5.616;2022-11-14T01:04:41;14.65;;;8.43;;
64543;SDS011;50936;51.660;5.616;2022-11-14T01:07:27;14.38;;;8.02;;
64543;SDS011;50936;51.660;5.616;2022-11-14T01:10:12;14.82;;;9.25;;
64543;SDS011;50936;51.660;5.616;2022-11-14T01:12:57;15.63;;;8.68;;
64543;SDS011;50936;51.660;5.616;2022-11-14T01:15:43;14.48;;;8.60;;
64543;SDS011;50936;51.660;5.616;2022-11-14T01:18:31;15.80;;;8.38;;
64543;SDS011;50936;51.660;5.616;2022-11-14T01:21:17;14.30;;;10.15;;
64543;SDS011;50936;51.660;5.616;2022-11-14T01:24:03;14.88;;;8.80;;
64543;SDS011;50936;51.660;5.616;2022-11-14T01:26:48;18.10;;;9.05;;
64543;SDS011;50936;51.660;5.616;2022-11-14T01:29:33;15.40;;;8.45;;
64543;SDS011;50936;51.660;5.616;2022-11-14T01:32:18;16.08;;;8.75;;
64543;SDS011;50936;51.660;5.616;2022-11-14T01:35:04;15.98;;;8.60;;
64543;SDS011;50936;51.660;5.616;2022-11-14T01:37:49;16.08;;;8.45;;
64543;SDS011;50936;51.660;5.616;2022-11-14T01:43:29;24.55;;;9.23;;
64543;SDS011;50936;51.660;5.616;2022-11-14T01:49:04;17.55;;;9.52;;
64543;SDS011;50936;51.660;5.616;2022-11-14T01:52:01;22.20;;;8.38;;
64543;SDS011;50936;51.660;5.616;2022-11-14T01:54:51;16.75;;;10.95;;
64543;SDS011;50936;51.660;5.616;2022-11-14T01:57:40;20.25;;;10.15;;
64543;SDS011;50936;51.660;5.616;2022-11-14T02:00:30;19.10;;;10.32;;
64543;SDS011;50936;51.660;5.616;2022-11-14T02:03:16;20.42;;;9.88;;
64543;SDS011;50936;51.660;5.616;2022-11-14T02:06:02;19.08;;;9.43;;
64543;SDS011;50936;51.660;5.616;2022-11-14T02:08:50;16.38;;;9.48;;
64543;SDS011;50936;51.660;5.616;2022-11-14T02:11:38;18.50;;;10.30;;
64543;SDS011;50936;51.660;5.616;2022-11-14T02:14:28;18.48;;;10.55;;
64543;SDS011;50936;51.660;5.616;2022-11-14T02:17:15;16.27;;;9.73;;
64543;SDS011;50936;51.660;5.616;2022-11-14T02:20:23;18.55;;;10.60;;
64543;SDS011;50936;51.660;5.616;2022-11-14T02:23:29;20.08;;;10.90;;
64543;SDS011;50936;51.660;5.616;2022-11-14T02:26:17;19.80;;;11.07;;
64543;SDS011;50936;51.660;5.616;2022-11-14T02:29:05;18.25;;;10.27;;
64543;SDS011;50936;51.660;5.616;2022-11-14T02:31:53;18.17;;;11.02;;
64543;SDS011;50936;51.660;5.616;2022-11-14T02:37:23;18.83;;;9.00;;
64543;SDS011;50936;51.660;5.616;2022-11-14T02:40:08;23.65;;;12.07;;
64543;SDS011;50936;51.660;5.616;2022-11-14T02:42:54;23.67;;;11.95;;
64543;SDS011;50936;51.660;5.616;2022-11-14T02:45:39;23.40;;;10.95;;
64543;SDS011;50936;51.660;5.616;2022-11-14T02:48:25;24.48;;;11.70;;
64543;SDS011;50936;51.660;5.616;2022-11-14T02:51:11;20.00;;;11.65;;
64543;SDS011;50936;51.660;5.616;2022-11-14T02:53:56;26.33;;;11.98;;
64543;SDS011;50936;51.660;5.616;2022-11-14T02:56:41;23.05;;;12.35;;
64543;SDS011;50936;51.660;5.616;2022-11-14T02:59:27;25.73;;;13.13;;
64543;SDS011;50936;51.660;5.616;2022-11-14T03:04:57;22.38;;;11.63;;
64543;SDS011;50936;51.660;5.616;2022-11-14T03:07:43;25.58;;;12.70;;
64543;SDS011;50936;51.660;5.616;2022-11-14T03:10:28;23.52;;;12.25;;
64543;SDS011;50936;51.660;5.616;2022-11-14T03:13:13;25.88;;;11.68;;
64543;SDS011;50936;51.660;5.616;2022-11-14T03:19:01;22.13;;;12.32;;
64543;SDS011;50936;51.660;5.616;2022-11-14T03:21:47;26.10;;;12.38;;
64543;SDS011;50936;51.660;5.616;2022-11-14T03:24:32;26.65;;;13.15;;
64543;SDS011;50936;51.660;5.616;2022-11-14T03:27:17;25.15;;;12.30;;
64543;SDS011;50936;51.660;5.616;2022-11-14T03:30:04;27.17;;;12.80;;
64543;SDS011;50936;51.660;5.616;2022-11-14T03:32:50;22.42;;;12.68;;
64543;SDS011;50936;51.660;5.616;2022-11-14T03:38:25;26.35;;;13.27;;
64543;SDS011;50936;51.660;5.616;2022-11-14T03:41:11;24.05;;;12.00;;
64543;SDS011;50936;51.660;5.616;2022-11-14T03:43:57;26.48;;;12.77;;
64543;SDS011;50936;51.660;5.616;2022-11-14T03:46:42;28.88;;;12.57;;
64543;SDS011;50936;51.660;5.616;2022-11-14T03:49:27;28.77;;;14.25;;
64543;SDS011;50936;51.660;5.616;2022-11-14T03:52:12;27.52;;;12.85;;
64543;SDS011;50936;51.660;5.616;2022-11-14T03:54:57;26.70;;;13.85;;
64543;SDS011;50936;51.660;5.616;2022-11-14T03:57:42;27.48;;;13.65;;
64543;SDS011;50936;51.660;5.616;2022-11-14T04:03:13;25.67;;;12.85;;
64543;SDS011;50936;51.660;5.616;2022-11-14T04:05:58;28.70;;;12.88;;
64543;SDS011;50936;51.660;5.616;2022-11-14T04:08:43;29.98;;;14.35;;
64543;SDS011;50936;51.660;5.616;2022-11-14T04:11:29;28.20;;;13.73;;
64543;SDS011;50936;51.660;5.616;2022-11-14T04:16:59;29.17;;;13.40;;
64543;SDS011;50936;51.660;5.616;2022-11-14T04:22:29;29.33;;;12.85;;
64543;SDS011;50936;51.660;5.616;2022-11-14T04:27:59;26.85;;;13.13;;
64543;SDS011;50936;51.660;5.616;2022-11-14T04:30:44;27.08;;;12.73;;
64543;SDS011;50936;51.660;5.616;2022-11-14T04:33:30;28.77;;;14.27;;
64543;SDS011;50936;51.660;5.616;2022-11-14T04:36:15;32.30;;;14.63;;
64543;SDS011;50936;51.660;5.616;2022-11-14T04:39:00;31.70;;;14.70;;
64543;SDS011;50936;51.660;5.616;2022-11-14T04:44:30;34.50;;;14.95;;
64543;SDS011;50936;51.660;5.616;2022-11-14T04:47:16;33.83;;;14.63;;
64543;SDS011;50936;51.660;5.616;2022-11-14T04:50:02;33.63;;;15.52;;
64543;SDS011;50936;51.660;5.616;2022-11-14T04:52:51;34.13;;;15.60;;
64543;SDS011;50936;51.660;5.616;2022-11-14T04:55:37;32.05;;;14.85;;
64543;SDS011;50936;51.660;5.616;2022-11-14T05:01:11;28.17;;;13.32;;
64543;SDS011;50936;51.660;5.616;2022-11-14T05:03:58;29.92;;;14.05;;
64543;SDS011;50936;51.660;5.616;2022-11-14T05:09:28;28.58;;;12.77;;
64543;SDS011;50936;51.660;5.616;2022-11-14T05:12:14;31.10;;;13.98;;
64543;SDS011;50936;51.660;5.616;2022-11-14T05:17:44;35.92;;;15.50;;
64543;SDS011;50936;51.660;5.616;2022-11-14T05:20:29;35.90;;;14.90;;
64543;SDS011;50936;51.660;5.616;2022-11-14T05:23:22;36.53;;;15.63;;
64543;SDS011;50936;51.660;5.616;2022-11-14T05:26:13;30.75;;;13.07;;
64543;SDS011;50936;51.660;5.616;2022-11-14T05:29:00;34.20;;;15.77;;
64543;SDS011;50936;51.660;5.616;2022-11-14T05:31:46;34.53;;;14.68;;
64543;SDS011;50936;51.660;5.616;2022-11-14T05:34:31;34.85;;;15.32;;
64543;SDS011;50936;51.660;5.616;2022-11-14T05:37:16;34.63;;;15.57;;
64543;SDS011;50936;51.660;5.616;2022-11-14T05:40:02;32.45;;;14.32;;
64543;SDS011;50936;51.660;5.616;2022-11-14T05:42:49;34.75;;;14.93;;
64543;SDS011;50936;51.660;5.616;2022-11-14T05:45:38;34.28;;;15.13;;
64543;SDS011;50936;51.660;5.616;2022-11-14T05:48:23;34.20;;;16.00;;
64543;SDS011;50936;51.660;5.616;2022-11-14T05:51:09;31.58;;;14.18;;
64543;SDS011;50936;51.660;5.616;2022-11-14T05:53:56;37.00;;;15.95;;
64543;SDS011;50936;51.660;5.616;2022-11-14T05:59:26;31.92;;;14.57;;
64543;SDS011;50936;51.660;5.616;2022-11-14T06:02:12;30.08;;;14.57;;
64543;SDS011;50936;51.660;5.616;2022-11-14T06:04:58;32.05;;;14.98;;
64543;SDS011;50936;51.660;5.616;2022-11-14T06:10:28;33.97;;;14.95;;
64543;SDS011;50936;51.660;5.616;2022-11-14T06:13:14;29.25;;;14.05;;
64543;SDS011;50936;51.660;5.616;2022-11-14T06:16:03;31.73;;;14.63;;
64543;SDS011;50936;51.660;5.616;2022-11-14T06:18:52;32.05;;;14.70;;
64543;SDS011;50936;51.660;5.616;2022-11-14T06:21:37;32.10;;;14.73;;
64543;SDS011;50936;51.660;5.616;2022-11-14T06:27:07;28.85;;;14.13;;
64543;SDS011;50936;51.660;5.616;2022-11-14T06:29:53;32.72;;;14.75;;
64543;SDS011;50936;51.660;5.616;2022-11-14T06:32:38;34.03;;;14.98;;
64543;SDS011;50936;51.660;5.616;2022-11-14T06:38:10;33.50;;;14.07;;
64543;SDS011;50936;51.660;5.616;2022-11-14T06:41:01;26.65;;;13.20;;
64543;SDS011;50936;51.660;5.616;2022-11-14T06:43:51;31.92;;;15.23;;
64543;SDS011;50936;51.660;5.616;2022-11-14T06:46:38;36.10;;;15.73;;
64543;SDS011;50936;51.660;5.616;2022-11-14T06:52:08;36.75;;;14.57;;
64543;SDS011;50936;51.660;5.616;2022-11-14T06:54:54;38.28;;;13.50;;
64543;SDS011;50936;51.660;5.616;2022-11-14T07:00:24;26.77;;;12.70;;
64543;SDS011;50936;51.660;5.616;2022-11-14T07:03:10;35.58;;;14.15;;
64543;SDS011;50936;51.660;5.616;2022-11-14T07:08:47;25.88;;;12.98;;
64543;SDS011;50936;51.660;5.616;2022-11-14T07:11:33;25.02;;;13.70;;
64543;SDS011;50936;51.660;5.616;2022-11-14T07:14:19;27.02;;;12.88;;
64543;SDS011;50936;51.660;5.616;2022-11-14T07:17:04;27.98;;;12.45;;
64543;SDS011;50936;51.660;5.616;2022-11-14T07:19:49;26.10;;;12.35;;
64543;SDS011;50936;51.660;5.616;2022-11-14T07:22:34;27.00;;;13.13;;
64543;SDS011;50936;51.660;5.616;2022-11-14T07:25:19;26.67;;;12.40;;
64543;SDS011;50936;51.660;5.616;2022-11-14T07:28:06;24.10;;;12.00;;
64543;SDS011;50936;51.660;5.616;2022-11-14T07:30:51;23.02;;;11.23;;
64543;SDS011;50936;51.660;5.616;2022-11-14T07:36:22;23.10;;;11.70;;
64543;SDS011;50936;51.660;5.616;2022-11-14T07:39:07;28.67;;;12.00;;
64543;SDS011;50936;51.660;5.616;2022-11-14T07:41:53;23.70;;;11.95;;
64543;SDS011;50936;51.660;5.616;2022-11-14T07:47:23;26.77;;;12.65;;
64543;SDS011;50936;51.660;5.616;2022-11-14T07:50:08;32.28;;;12.27;;
64543;SDS011;50936;51.660;5.616;2022-11-14T07:52:54;28.80;;;12.60;;
64543;SDS011;50936;51.660;5.616;2022-11-14T07:55:41;27.52;;;13.48;;
64543;SDS011;50936;51.660;5.616;2022-11-14T07:58:27;27.58;;;13.43;;
64543;SDS011;50936;51.660;5.616;2022-11-14T08:01:13;25.95;;;13.23;;
64543;SDS011;50936;51.660;5.616;2022-11-14T08:03:59;25.55;;;12.25;;
64543;SDS011;50936;51.660;5.616;2022-11-14T08:09:29;27.35;;;12.77;;
64543;SDS011;50936;51.660;5.616;2022-11-14T08:15:00;26.13;;;12.05;;
64543;SDS011;50936;51.660;5.616;2022-11-14T08:17:45;23.60;;;12.30;;
64543;SDS011;50936;51.660;5.616;2022-11-14T08:20:30;25.15;;;11.90;;
64543;SDS011;50936;51.660;5.616;2022-11-14T08:26:01;21.60;;;11.45;;
64543;SDS011;50936;51.660;5.616;2022-11-14T08:28:46;21.65;;;11.27;;
64543;SDS011;50936;51.660;5.616;2022-11-14T08:34:16;24.20;;;13.35;;
64543;SDS011;50936;51.660;5.616;2022-11-14T08:37:02;19.60;;;10.77;;
64543;SDS011;50936;51.660;5.616;2022-11-14T08:39:47;21.92;;;11.38;;
64543;SDS011;50936;51.660;5.616;2022-11-14T08:42:33;26.42;;;11.63;;
64543;SDS011;50936;51.660;5.616;2022-11-14T08:48:03;21.95;;;11.45;;
64543;SDS011;50936;51.660;5.616;2022-11-14T08:50:49;14.73;;;8.05;;
64543;SDS011;50936;51.660;5.616;2022-11-14T08:53:34;19.00;;;10.43;;
64543;SDS011;50936;51.660;5.616;2022-11-14T08:56:19;13.15;;;7.65;;
64543;SDS011;50936;51.660;5.616;2022-11-14T08:59:05;18.00;;;10.45;;
64543;SDS011;50936;51.660;5.616;2022-11-14T09:01:50;19.15;;;9.75;;
64543;SDS011;50936;51.660;5.616;2022-11-14T09:04:35;24.98;;;9.15;;
64543;SDS011;50936;51.660;5.616;2022-11-14T09:07:22;20.80;;;10.57;;
64543;SDS011;50936;51.660;5.616;2022-11-14T09:10:07;21.17;;;10.25;;
64543;SDS011;50936;51.660;5.616;2022-11-14T09:12:54;21.77;;;11.25;;
64543;SDS011;50936;51.660;5.616;2022-11-14T09:15:44;19.73;;;10.52;;
64543;SDS011;50936;51.660;5.616;2022-11-14T09:18:29;21.10;;;10.77;;
64543;SDS011;50936;51.660;5.616;2022-11-14T09:21:15;22.30;;;10.75;;
64543;SDS011;50936;51.660;5.616;2022-11-14T09:24:01;20.40;;;10.52;;
64543;SDS011;50936;51.660;5.616;2022-11-14T09:26:46;19.35;;;10.55;;
64543;SDS011;50936;51.660;5.616;2022-11-14T09:29:40;22.67;;;11.65;;
64543;SDS011;50936;51.660;5.616;2022-11-14T09:32:25;21.52;;;11.68;;
64543;SDS011;50936;51.660;5.616;2022-11-14T09:35:10;21.20;;;11.02;;
64543;SDS011;50936;51.660;5.616;2022-11-14T09:38:03;20.15;;;10.50;;
64543;SDS011;50936;51.660;5.616;2022-11-14T09:44:00;19.02;;;10.93;;
64543;SDS011;50936;51.660;5.616;2022-11-14T09:47:12;19.58;;;9.98;;
64543;SDS011;50936;51.660;5.616;2022-11-14T09:53:01;23.35;;;10.82;;
64543;SDS011;50936;51.660;5.616;2022-11-14T09:55:54;19.80;;;11.02;;
64543;SDS011;50936;51.660;5.616;2022-11-14T09:58:39;21.27;;;11.45;;
64543;SDS011;50936;51.660;5.616;2022-11-14T10:08:13;25.63;;;12.27;;
64543;SDS011;50936;51.660;5.616;2022-11-14T10:11:38;15.57;;;8.57;;
64543;SDS011;50936;51.660;5.616;2022-11-14T10:14:40;21.67;;;12.07;;
64543;SDS011;50936;51.660;5.616;2022-11-14T10:21:03;24.17;;;12.40;;
64543;SDS011;50936;51.660;5.616;2022-11-14T10:24:27;25.95;;;11.82;;
64543;SDS011;50936;51.660;5.616;2022-11-14T10:40:11;26.33;;;13.73;;
64543;SDS011;50936;51.660;5.616;2022-11-14T10:46:33;25.67;;;13.80;;
64543;SDS011;50936;51.660;5.616;2022-11-14T10:49:25;28.15;;;14.52;;
64543;SDS011;50936;51.660;5.616;2022-11-14T10:52:17;26.45;;;14.55;;
64543;SDS011;50936;51.660;5.616;2022-11-14T10:55:14;29.30;;;14.75;;
64543;SDS011;50936;51.660;5.616;2022-11-14T10:58:07;30.10;;;16.33;;
64543;SDS011;50936;51.660;5.616;2022-11-14T11:00:57;25.33;;;12.65;;
64543;SDS011;50936;51.660;5.616;2022-11-14T11:04:30;30.50;;;14.43;;
64543;SDS011;50936;51.660;5.616;2022-11-14T11:07:19;29.52;;;14.63;;
64543;SDS011;50936;51.660;5.616;2022-11-14T11:10:27;30.42;;;14.70;;
64543;SDS011;50936;51.660;5.616;2022-11-14T11:13:32;29.40;;;15.77;;
64543;SDS011;50936;51.660;5.616;2022-11-14T11:16:21;31.23;;;15.85;;
64543;SDS011;50936;51.660;5.616;2022-11-14T11:19:13;32.13;;;16.38;;
64543;SDS011;50936;51.660;5.616;2022-11-14T11:25:22;47.30;;;19.38;;
64543;SDS011;50936;51.660;5.616;2022-11-14T11:31:02;46.28;;;22.65;;
64543;SDS011;50936;51.660;5.616;2022-11-14T11:33:53;49.50;;;21.98;;
64543;SDS011;50936;51.660;5.616;2022-11-14T11:36:44;34.05;;;18.08;;
64543;SDS011;50936;51.660;5.616;2022-11-14T11:39:48;52.95;;;22.08;;
64543;SDS011;50936;51.660;5.616;2022-11-14T11:42:40;50.88;;;25.70;;
64543;SDS011;50936;51.660;5.616;2022-11-14T11:45:54;43.47;;;20.30;;
64543;SDS011;50936;51.660;5.616;2022-11-14T11:48:44;51.53;;;25.33;;
64543;SDS011;50936;51.660;5.616;2022-11-14T11:51:39;60.50;;;28.10;;
64543;SDS011;50936;51.660;5.616;2022-11-14T11:54:30;55.50;;;26.27;;
64543;SDS011;50936;51.660;5.616;2022-11-14T11:58:23;65.85;;;31.38;;
64543;SDS011;50936;51.660;5.616;2022-11-14T12:01:15;68.95;;;31.17;;
64543;SDS011;50936;51.660;5.616;2022-11-14T12:04:01;69.03;;;31.10;;
64543;SDS011;50936;51.660;5.616;2022-11-14T12:07:05;61.90;;;25.88;;
64543;SDS011;50936;51.660;5.616;2022-11-14T12:10:00;59.80;;;24.08;;
64543;SDS011;50936;51.660;5.616;2022-11-14T12:16:20;51.50;;;21.98;;
64543;SDS011;50936;51.660;5.616;2022-11-14T12:20:01;56.10;;;26.15;;
64543;SDS011;50936;51.660;5.616;2022-11-14T12:32:46;50.13;;;22.55;;
64543;SDS011;50936;51.660;5.616;2022-11-14T12:35:39;46.97;;;21.23;;
64543;SDS011;50936;51.660;5.616;2022-11-14T12:38:46;41.17;;;19.38;;
64543;SDS011;50936;51.660;5.616;2022-11-14T12:41:37;43.03;;;18.40;;
64543;SDS011;50936;51.660;5.616;2022-11-14T12:47:15;44.50;;;19.10;;
64543;SDS011;50936;51.660;5.616;2022-11-14T12:50:26;43.60;;;19.60;;
64543;SDS011;50936;51.660;5.616;2022-11-14T13:02:08;36.95;;;16.45;;
64543;SDS011;50936;51.660;5.616;2022-11-14T13:11:51;39.75;;;17.30;;
64543;SDS011;50936;51.660;5.616;2022-11-14T13:14:55;39.85;;;17.48;;
64543;SDS011;50936;51.660;5.616;2022-11-14T13:21:21;35.40;;;14.25;;
64543;SDS011;50936;51.660;5.616;2022-11-14T13:27:43;33.65;;;13.23;;
64543;SDS011;50936;51.660;5.616;2022-11-14T13:40:52;39.20;;;16.88;;
64543;SDS011;50936;51.660;5.616;2022-11-14T13:48:03;29.67;;;12.93;;
64543;SDS011;50936;51.660;5.616;2022-11-14T13:51:11;36.22;;;16.98;;
64543;SDS011;50936;51.660;5.616;2022-11-14T13:54:21;32.25;;;14.48;;
64543;SDS011;50936;51.660;5.616;2022-11-14T14:00:49;30.40;;;13.95;;
64543;SDS011;50936;51.660;5.616;2022-11-14T14:04:01;30.20;;;14.50;;
64543;SDS011;50936;51.660;5.616;2022-11-14T14:14:14;39.10;;;17.30;;
64543;SDS011;50936;51.660;5.616;2022-11-14T14:17:21;37.42;;;18.27;;
64543;SDS011;50936;51.660;5.616;2022-11-14T14:27:11;38.17;;;17.13;;
64543;SDS011;50936;51.660;5.616;2022-11-14T14:30:13;39.15;;;18.35;;
64543;SDS011;50936;51.660;5.616;2022-11-14T14:33:14;41.92;;;18.83;;
64543;SDS011;50936;51.660;5.616;2022-11-14T14:35:59;36.88;;;18.48;;
64543;SDS011;50936;51.660;5.616;2022-11-14T14:38:45;39.45;;;17.92;;
64543;SDS011;50936;51.660;5.616;2022-11-14T14:41:31;40.63;;;19.73;;
64543;SDS011;50936;51.660;5.616;2022-11-14T14:50:24;40.40;;;18.75;;
64543;SDS011;50936;51.660;5.616;2022-11-14T14:53:25;31.75;;;15.15;;
64543;SDS011;50936;51.660;5.616;2022-11-14T14:56:19;35.63;;;17.70;;
64543;SDS011;50936;51.660;5.616;2022-11-14T14:59:15;33.60;;;16.92;;
64543;SDS011;50936;51.660;5.616;2022-11-14T15:02:12;35.80;;;17.30;;
64543;SDS011;50936;51.660;5.616;2022-11-14T15:05:02;30.75;;;16.05;;
64543;SDS011;50936;51.660;5.616;2022-11-14T15:07:47;32.33;;;16.08;;
64543;SDS011;50936;51.660;5.616;2022-11-14T15:10:35;35.72;;;17.63;;
64543;SDS011;50936;51.660;5.616;2022-11-14T15:13:20;33.08;;;17.15;;
64543;SDS011;50936;51.660;5.616;2022-11-14T15:16:08;35.08;;;17.52;;
64543;SDS011;50936;51.660;5.616;2022-11-14T15:18:55;35.75;;;17.73;;
64543;SDS011;50936;51.660;5.616;2022-11-14T15:21:42;32.13;;;17.75;;
64543;SDS011;50936;51.660;5.616;2022-11-14T15:24:28;32.35;;;16.17;;
64543;SDS011;50936;51.660;5.616;2022-11-14T15:27:15;30.63;;;15.75;;
64543;SDS011;50936;51.660;5.616;2022-11-14T15:30:05;30.15;;;15.77;;
64543;SDS011;50936;51.660;5.616;2022-11-14T15:33:23;28.38;;;15.85;;
64543;SDS011;50936;51.660;5.616;2022-11-14T15:36:13;31.77;;;15.80;;
64543;SDS011;50936;51.660;5.616;2022-11-14T15:39:04;29.48;;;16.45;;
64543;SDS011;50936;51.660;5.616;2022-11-14T15:48:22;22.45;;;10.68;;
64543;SDS011;50936;51.660;5.616;2022-11-14T15:51:08;28.27;;;14.23;;
64543;SDS011;50936;51.660;5.616;2022-11-14T15:53:53;19.48;;;10.88;;
64543;SDS011;50936;51.660;5.616;2022-11-14T15:56:38;30.77;;;16.13;;
64543;SDS011;50936;51.660;5.616;2022-11-14T15:59:24;31.70;;;15.30;;
64543;SDS011;50936;51.660;5.616;2022-11-14T16:02:14;31.17;;;16.52;;
64543;SDS011;50936;51.660;5.616;2022-11-14T16:05:03;26.25;;;14.65;;
64543;SDS011;50936;51.660;5.616;2022-11-14T16:07:49;31.50;;;15.40;;
64543;SDS011;50936;51.660;5.616;2022-11-14T16:10:34;30.70;;;15.57;;
64543;SDS011;50936;51.660;5.616;2022-11-14T16:13:19;31.40;;;14.93;;
64543;SDS011;50936;51.660;5.616;2022-11-14T16:16:04;27.70;;;14.65;;
64543;SDS011;50936;51.660;5.616;2022-11-14T16:18:50;34.30;;;16.73;;
64543;SDS011;50936;51.660;5.616;2022-11-14T16:21:36;31.98;;;15.10;;
64543;SDS011;50936;51.660;5.616;2022-11-14T16:24:22;29.83;;;15.35;;
64543;SDS011;50936;51.660;5.616;2022-11-14T16:27:07;29.27;;;15.02;;
64543;SDS011;50936;51.660;5.616;2022-11-14T16:29:53;29.52;;;14.45;;
64543;SDS011;50936;51.660;5.616;2022-11-14T16:32:39;29.25;;;15.13;;
64543;SDS011;50936;51.660;5.616;2022-11-14T16:35:30;29.98;;;14.15;;
64543;SDS011;50936;51.660;5.616;2022-11-14T16:41:00;29.85;;;14.57;;
64543;SDS011;50936;51.660;5.616;2022-11-14T16:43:45;31.10;;;14.77;;
64543;SDS011;50936;51.660;5.616;2022-11-14T16:46:30;28.17;;;14.43;;
64543;SDS011;50936;51.660;5.616;2022-11-14T16:49:16;31.35;;;14.88;;
64543;SDS011;50936;51.660;5.616;2022-11-14T16:52:03;30.88;;;14.27;;
64543;SDS011;50936;51.660;5.616;2022-11-14T16:54:52;31.73;;;15.95;;
64543;SDS011;50936;51.660;5.616;2022-11-14T16:57:38;33.88;;;16.75;;
64543;SDS011;50936;51.660;5.616;2022-11-14T17:00:24;31.20;;;14.75;;
64543;SDS011;50936;51.660;5.616;2022-11-14T17:03:09;30.20;;;15.90;;
64543;SDS011;50936;51.660;5.616;2022-11-14T17:05:54;38.15;;;17.92;;
64543;SDS011;50936;51.660;5.616;2022-11-14T17:08:40;36.63;;;16.80;;
64543;SDS011;50936;51.660;5.616;2022-11-14T17:11:25;31.33;;;15.07;;
64543;SDS011;50936;51.660;5.616;2022-11-14T17:14:12;34.28;;;16.10;;
64543;SDS011;50936;51.660;5.616;2022-11-14T17:16:58;33.85;;;16.10;;
64543;SDS011;50936;51.660;5.616;2022-11-14T17:19:46;35.08;;;16.40;;
64543;SDS011;50936;51.660;5.616;2022-11-14T17:22:31;31.00;;;15.80;;
64543;SDS011;50936;51.660;5.616;2022-11-14T17:25:17;33.45;;;15.55;;
64543;SDS011;50936;51.660;5.616;2022-11-14T17:28:02;31.20;;;15.52;;
64543;SDS011;50936;51.660;5.616;2022-11-14T17:30:48;31.02;;;15.15;;
64543;SDS011;50936;51.660;5.616;2022-11-14T17:33:33;28.85;;;14.35;;
64543;SDS011;50936;51.660;5.616;2022-11-14T17:36:20;27.67;;;14.35;;
64543;SDS011;50936;51.660;5.616;2022-11-14T17:39:07;34.42;;;14.52;;
64543;SDS011;50936;51.660;5.616;2022-11-14T17:41:52;36.47;;;15.63;;
64543;SDS011;50936;51.660;5.616;2022-11-14T17:44:38;27.50;;;14.68;;
64543;SDS011;50936;51.660;5.616;2022-11-14T17:47:23;30.08;;;14.75;;
64543;SDS011;50936;51.660;5.616;2022-11-14T17:50:08;28.58;;;14.77;;
64543;SDS011;50936;51.660;5.616;2022-11-14T17:52:53;31.40;;;15.13;;
64543;SDS011;50936;51.660;5.616;2022-11-14T17:58:26;27.55;;;14.75;;
64543;SDS011;50936;51.660;5.616;2022-11-14T18:01:14;30.73;;;14.85;;
64543;SDS011;50936;51.660;5.616;2022-11-14T18:04:04;29.83;;;14.88;;
64543;SDS011;50936;51.660;5.616;2022-11-14T18:06:50;29.92;;;15.60;;
64543;SDS011;50936;51.660;5.616;2022-11-14T18:09:37;31.73;;;16.40;;
64543;SDS011;50936;51.660;5.616;2022-11-14T18:12:23;31.92;;;15.48;;
64543;SDS011;50936;51.660;5.616;2022-11-14T18:15:08;33.50;;;15.18;;
64543;SDS011;50936;51.660;5.616;2022-11-14T18:17:54;28.08;;;14.35;;
64543;SDS011;50936;51.660;5.616;2022-11-14T18:20:39;32.25;;;15.02;;
64543;SDS011;50936;51.660;5.616;2022-11-14T18:23:24;30.45;;;15.18;;
64543;SDS011;50936;51.660;5.616;2022-11-14T18:26:10;30.35;;;14.93;;
64543;SDS011;50936;51.660;5.616;2022-11-14T18:28:59;31.00;;;14.90;;
64543;SDS011;50936;51.660;5.616;2022-11-14T18:31:46;29.38;;;15.38;;
64543;SDS011;50936;51.660;5.616;2022-11-14T18:34:32;31.75;;;14.40;;
64543;SDS011;50936;51.660;5.616;2022-11-14T18:37:21;38.65;;;16.05;;
64543;SDS011;50936;51.660;5.616;2022-11-14T18:40:07;36.47;;;17.73;;
64543;SDS011;50936;51.660;5.616;2022-11-14T18:43:00;31.88;;;17.02;;
64543;SDS011;50936;51.660;5.616;2022-11-14T18:45:45;35.08;;;17.77;;
64543;SDS011;50936;51.660;5.616;2022-11-14T18:48:31;31.30;;;16.13;;
64543;SDS011;50936;51.660;5.616;2022-11-14T18:51:17;32.28;;;16.27;;
64543;SDS011;50936;51.660;5.616;2022-11-14T18:54:10;31.83;;;16.02;;
64543;SDS011;50936;51.660;5.616;2022-11-14T18:56:58;29.98;;;15.32;;
64543;SDS011;50936;51.660;5.616;2022-11-14T18:59:44;32.33;;;14.68;;
64543;SDS011;50936;51.660;5.616;2022-11-14T19:02:29;36.78;;;16.08;;
64543;SDS011;50936;51.660;5.616;2022-11-14T19:05:15;29.33;;;15.48;;
64543;SDS011;50936;51.660;5.616;2022-11-14T19:08:01;34.15;;;15.10;;
64543;SDS011;50936;51.660;5.616;2022-11-14T19:10:47;31.23;;;15.73;;
64543;SDS011;50936;51.660;5.616;2022-11-14T19:13:32;29.80;;;15.43;;
64543;SDS011;50936;51.660;5.616;2022-11-14T19:16:18;34.67;;;14.40;;
64543;SDS011;50936;51.660;5.616;2022-11-14T19:19:04;30.83;;;15.70;;
64543;SDS011;50936;51.660;5.616;2022-11-14T19:21:50;32.92;;;16.30;;
64543;SDS011;50936;51.660;5.616;2022-11-14T19:24:36;31.15;;;16.35;;
64543;SDS011;50936;51.660;5.616;2022-11-14T19:27:24;28.90;;;15.90;;
64543;SDS011;50936;51.660;5.616;2022-11-14T19:30:09;35.58;;;16.08;;
64543;SDS011;50936;51.660;5.616;2022-11-14T19:32:55;27.42;;;13.73;;
64543;SDS011;50936;51.660;5.616;2022-11-14T19:35:41;32.97;;;16.75;;
64543;SDS011;50936;51.660;5.616;2022-11-14T19:38:26;34.90;;;16.42;;
64543;SDS011;50936;51.660;5.616;2022-11-14T19:41:15;30.75;;;16.02;;
64543;SDS011;50936;51.660;5.616;2022-11-14T19:44:05;35.75;;;15.07;;
64543;SDS011;50936;51.660;5.616;2022-11-14T19:46:51;30.70;;;14.80;;
64543;SDS011;50936;51.660;5.616;2022-11-14T19:49:36;35.40;;;17.15;;
64543;SDS011;50936;51.660;5.616;2022-11-14T19:52:22;28.60;;;14.55;;
64543;SDS011;50936;51.660;5.616;2022-11-14T19:55:07;31.88;;;16.48;;
64543;SDS011;50936;51.660;5.616;2022-11-14T19:57:53;34.38;;;15.10;;
64543;SDS011;50936;51.660;5.616;2022-11-14T20:03:23;22.45;;;11.23;;